Time;durP1;ratioP1;P1;durP2;ratioP2;P2;SDS_P1;SDS_P2;PMS_P1;PMS_P2;Temp;Humidity;BMP_temperature;BMP_pressure;BME280_temperature;BME280_humidity;BME280_pressure;Samples;Min_cycle;Max_cycle;Signal;HPM_P1;HPM_P2
2021/06/12 00:00:30;;;;;;;5.90;4.77;;;22.20;90.10;29.80;99615.00;;;;5068195;28;20181;-81
2021/06/12 00:02:58;;;;;;;5.70;4.50;;;22.10;90.10;29.80;99615.00;;;;5068202;28;20593;-80
2021/06/12 00:05:24;;;;;;;6.13;4.67;;;22.10;90.10;29.80;99611.00;;;;5052189;28;20436;-80
2021/06/12 00:07:50;;;;;;;5.53;4.70;;;22.10;90.10;29.80;99613.00;;;;5069094;28;20436;-80
2021/06/12 00:10:22;;;;;;;5.90;4.93;;;22.10;90.10;29.80;99621.00;;;;5070053;28;20474;-79
2021/06/12 00:12:48;;;;;;;5.30;4.50;;;22.10;90.10;29.70;99607.00;;;;5036093;28;20182;-80
2021/06/12 00:15:15;;;;;;;5.50;4.33;;;22.10;90.10;29.80;99611.00;;;;5068020;28;20463;-80
2021/06/12 00:17:41;;;;;;;6.17;5.07;;;22.10;90.10;29.70;99621.00;;;;5034999;28;20622;-79
2021/06/12 00:20:09;;;;;;;5.93;4.93;;;22.10;90.10;29.80;99610.00;;;;5051869;28;20790;-79
2021/06/12 00:22:35;;;;;;;5.63;4.70;;;22.10;90.10;29.70;99609.00;;;;5061746;28;20225;-79
2021/06/12 00:25:01;;;;;;;5.60;4.60;;;22.10;90.10;29.70;99613.00;;;;5051962;28;20814;-79
2021/06/12 00:27:26;;;;;;;5.93;5.00;;;22.10;90.10;29.70;99614.00;;;;5054778;28;20208;-79
2021/06/12 00:29:52;;;;;;;5.80;5.00;;;22.10;90.10;29.70;99616.00;;;;5072239;28;20582;-78
2021/06/12 00:32:18;;;;;;;5.27;4.40;;;22.10;90.10;29.70;99622.00;;;;5073045;28;20571;-80
2021/06/12 00:34:44;;;;;;;5.37;4.50;;;22.10;90.10;29.70;99614.00;;;;5071233;28;20404;-79
2021/06/12 00:37:09;;;;;;;5.80;5.10;;;22.10;90.10;29.70;99619.00;;;;5073417;28;20193;-80
2021/06/12 00:39:35;;;;;;;5.83;4.93;;;22.10;90.10;29.70;99615.00;;;;5055826;28;20189;-82
2021/06/12 00:42:01;;;;;;;5.73;4.93;;;22.10;90.10;29.70;99620.00;;;;5038341;28;20227;-81
2021/06/12 00:44:27;;;;;;;6.13;4.90;;;22.10;90.10;29.70;99612.00;;;;5072333;28;20181;-81
2021/06/12 00:46:52;;;;;;;6.20;4.60;;;22.00;90.10;29.70;99615.00;;;;5071941;28;20540;-81
2021/06/12 00:49:20;;;;;;;5.80;5.17;;;22.00;90.10;29.70;99609.00;;;;5071104;28;20209;-80
2021/06/12 00:51:46;;;;;;;5.43;4.57;;;22.00;90.10;29.60;99563.00;;;;5055880;28;20208;-81
2021/06/12 00:54:11;;;;;;;5.97;5.00;;;22.00;90.10;29.60;99603.00;;;;5071559;28;20427;-80
2021/06/12 00:56:37;;;;;;;5.47;4.77;;;22.00;90.10;29.70;99607.00;;;;5054821;28;20238;-80
2021/06/12 00:59:03;;;;;;;5.57;4.70;;;22.00;90.10;29.60;99618.00;;;;5038523;28;20178;-79
2021/06/12 01:01:29;;;;;;;5.83;5.07;;;22.00;90.10;29.70;99624.00;;;;5054898;28;20686;-80
2021/06/12 01:03:54;;;;;;;6.10;5.10;;;22.00;90.10;29.70;99608.00;;;;5072514;28;20196;-80
2021/06/12 01:06:20;;;;;;;5.60;4.67;;;22.00;90.10;29.80;99614.00;;;;5055201;28;20197;-80
2021/06/12 01:08:46;;;;;;;8.13;4.77;;;22.00;90.10;29.80;99606.00;;;;5037694;28;20216;-81
2021/06/12 01:11:12;;;;;;;5.60;4.60;;;22.00;90.10;29.70;99577.00;;;;5054028;28;20247;-82
2021/06/12 01:14:10;;;;;;;6.20;5.37;;;22.00;90.10;29.70;99606.00;;;;5054283;28;20264;-81
2021/06/12 01:17:06;;;;;;;5.03;4.10;;;22.00;90.10;29.60;99607.00;;;;5070385;28;20193;-82
2021/06/12 01:19:38;;;;;;;5.20;4.40;;;22.00;90.10;29.60;99613.00;;;;5055389;28;20435;-83
2021/06/12 01:22:10;;;;;;;5.77;4.50;;;22.00;90.10;29.70;99604.00;;;;5071308;28;20554;-84
2021/06/12 01:24:55;;;;;;;5.57;4.90;;;22.00;90.10;29.60;99596.00;;;;5021366;28;20474;-84
2021/06/12 01:28:06;;;;;;;5.60;4.17;;;22.00;90.10;29.60;99602.00;;;;5055648;28;20841;-82
2021/06/12 01:30:34;;;;;;;6.40;4.90;;;22.00;90.10;29.70;99601.00;;;;5074448;28;20601;-83
2021/06/12 01:33:10;;;;;;;5.50;4.47;;;21.90;90.10;29.60;99598.00;;;;5037509;28;20857;-82
2021/06/12 01:35:48;;;;;;;6.17;4.30;;;21.90;90.10;29.60;99605.00;;;;5054655;28;20535;-83
2021/06/12 01:38:25;;;;;;;5.33;4.37;;;21.90;90.10;29.70;99604.00;;;;5038714;28;20443;-82
2021/06/12 01:40:50;;;;;;;5.43;4.53;;;22.00;90.10;29.60;99602.00;;;;5022417;28;20463;-83
2021/06/12 01:43:17;;;;;;;6.20;5.30;;;22.00;90.10;29.70;99606.00;;;;5037707;28;20447;-81
2021/06/12 01:45:45;;;;;;;5.47;4.70;;;22.00;90.10;29.70;99599.00;;;;5053551;28;20193;-81
2021/06/12 01:48:11;;;;;;;5.70;4.70;;;21.90;90.10;29.60;99601.00;;;;5037984;28;20961;-78
2021/06/12 01:50:37;;;;;;;5.30;4.60;;;21.90;90.10;29.70;99603.00;;;;5070448;28;20476;-79
2021/06/12 01:53:03;;;;;;;5.53;4.50;;;21.90;90.10;29.60;99594.00;;;;5037393;28;20921;-78
2021/06/12 01:55:30;;;;;;;5.60;4.70;;;21.90;90.10;29.60;99583.00;;;;5053814;28;20515;-79
2021/06/12 01:57:56;;;;;;;5.93;4.37;;;21.90;90.10;29.70;99606.00;;;;5054055;28;20173;-78
2021/06/12 02:00:22;;;;;;;6.20;5.07;;;21.90;90.10;29.70;99592.00;;;;5036249;28;20442;-79
2021/06/12 02:02:48;;;;;;;5.50;4.63;;;21.90;90.10;29.60;99590.00;;;;5071336;28;20181;-78
2021/06/12 02:05:17;;;;;;;5.60;4.70;;;21.90;90.10;29.60;99590.00;;;;5037292;28;20208;-78
2021/06/12 02:07:43;;;;;;;5.40;4.50;;;21.90;90.10;29.60;99592.00;;;;5037138;28;20201;-78
2021/06/12 02:10:12;;;;;;;5.60;4.70;;;21.90;90.10;29.70;99583.00;;;;5037194;28;20475;-78
2021/06/12 02:12:38;;;;;;;5.40;4.47;;;21.90;90.50;29.70;99585.00;;;;5053519;28;20460;-78
2021/06/12 02:15:08;;;;;;;4.90;4.30;;;21.90;90.10;29.60;99586.00;;;;5069580;28;20424;-78
2021/06/12 02:17:34;;;;;;;5.20;4.20;;;21.90;90.10;29.60;99549.00;;;;5069812;28;20542;-78
2021/06/12 02:20:00;;;;;;;6.67;5.00;;;21.90;90.10;29.70;99587.00;;;;5036447;28;20873;-78
2021/06/12 02:22:28;;;;;;;5.00;4.23;;;21.90;90.10;29.40;99600.00;;;;5071357;28;20502;-78
2021/06/12 02:24:54;;;;;;;5.57;4.50;;;21.90;90.10;29.60;99590.00;;;;5069686;28;20475;-78
2021/06/12 02:27:21;;;;;;;6.00;5.00;;;21.90;90.10;29.60;99585.00;;;;5052567;28;20463;-78
2021/06/12 02:29:48;;;;;;;6.23;5.40;;;21.80;90.10;29.60;99591.00;;;;5052924;28;20475;-78
2021/06/12 02:32:14;;;;;;;5.73;4.77;;;21.80;90.10;29.50;99585.00;;;;5069884;28;20466;-78
2021/06/12 02:34:40;;;;;;;5.70;5.10;;;21.90;90.10;29.60;99594.00;;;;5035893;28;20849;-78
2021/06/12 02:37:07;;;;;;;5.20;4.30;;;21.90;90.10;29.50;99592.00;;;;5053416;28;20497;-78
2021/06/12 02:39:33;;;;;;;6.20;4.87;;;21.80;90.10;29.60;99595.00;;;;5068617;28;20432;-78
2021/06/12 02:42:00;;;;;;;5.83;4.87;;;21.80;90.10;29.50;99597.00;;;;5052895;28;20455;-77
2021/06/12 02:44:26;;;;;;;5.50;4.90;;;21.80;90.10;29.50;99592.00;;;;5052784;28;20410;-78
2021/06/12 02:46:53;;;;;;;5.27;4.00;;;21.80;90.10;29.50;99596.00;;;;5069652;28;20882;-78
2021/06/12 02:49:19;;;;;;;5.50;4.50;;;21.80;90.10;29.40;99604.00;;;;5035457;28;20481;-78
2021/06/12 02:51:53;;;;;;;5.80;4.70;;;21.80;90.10;29.60;99602.00;;;;5019788;28;20459;-78
2021/06/12 02:54:21;;;;;;;5.50;4.53;;;21.80;90.10;29.50;99599.00;;;;5037394;28;20443;-78
2021/06/12 02:56:47;;;;;;;5.43;4.77;;;21.80;90.10;29.50;99596.00;;;;5035931;28;20456;-78
2021/06/12 02:59:16;;;;;;;6.10;5.03;;;21.80;90.10;29.50;99554.00;;;;5036533;28;20440;-78
2021/06/12 03:01:42;;;;;;;5.40;4.73;;;21.80;90.10;29.40;99584.00;;;;5068855;28;20193;-78
2021/06/12 03:04:10;;;;;;;5.70;4.60;;;21.80;90.10;29.50;99569.00;;;;5052464;28;20439;-78
2021/06/12 03:06:36;;;;;;;5.67;5.07;;;21.80;90.10;29.50;99567.00;;;;5036023;28;20455;-78
2021/06/12 03:09:02;;;;;;;5.90;4.13;;;21.80;90.10;29.50;99564.00;;;;5052411;28;20482;-77
2021/06/12 03:11:28;;;;;;;5.80;4.90;;;21.80;90.10;29.50;99568.00;;;;5035846;28;20207;-78
2021/06/12 03:13:54;;;;;;;5.70;4.80;;;21.80;90.10;29.60;99569.00;;;;5036150;28;20439;-80
2021/06/12 03:16:20;;;;;;;5.40;4.30;;;21.80;90.10;29.40;99541.00;;;;5019089;28;20905;-80
2021/06/12 03:18:47;;;;;;;5.80;5.03;;;21.80;90.10;29.40;99549.00;;;;5035532;28;20181;-80
2021/06/12 03:21:14;;;;;;;5.13;4.10;;;21.80;90.10;29.40;99568.00;;;;5036110;28;20208;-81
2021/06/12 03:23:40;;;;;;;5.47;4.43;;;21.80;90.20;29.40;99562.00;;;;5036368;28;20505;-79
2021/06/12 03:26:08;;;;;;;5.50;4.53;;;21.80;90.10;29.40;99557.00;;;;5051773;28;20908;-78
2021/06/12 03:28:34;;;;;;;5.47;4.53;;;21.80;90.10;29.30;99569.00;;;;5052719;28;20706;-78
2021/06/12 03:31:02;;;;;;;5.20;4.30;;;21.70;90.10;29.40;99555.00;;;;5034824;28;20622;-78
2021/06/12 03:33:28;;;;;;;8.53;5.00;;;21.80;90.10;29.40;99563.00;;;;5035859;28;20174;-78
2021/06/12 03:35:53;;;;;;;5.33;4.50;;;21.80;90.10;29.40;99552.00;;;;5052209;28;20463;-79
2021/06/12 03:38:20;;;;;;;5.63;4.90;;;21.70;90.10;29.30;99562.00;;;;5051877;28;20505;-78
2021/06/12 03:40:46;;;;;;;5.30;4.47;;;21.70;90.10;29.30;99563.00;;;;5068531;28;20240;-81
2021/06/12 03:43:11;;;;;;;5.23;4.43;;;21.70;90.10;29.40;99557.00;;;;5068523;28;20467;-75
2021/06/12 03:45:41;;;;;;;6.30;4.33;;;21.70;90.10;29.30;99553.00;;;;5035014;28;20177;-75
2021/06/12 03:48:08;;;;;;;5.93;4.63;;;21.70;90.10;29.30;99571.00;;;;5036399;28;20173;-75
2021/06/12 03:50:33;;;;;;;5.63;4.97;;;21.70;90.10;29.30;99563.00;;;;5035496;28;20475;-75
2021/06/12 03:52:59;;;;;;;6.10;4.20;;;21.70;90.10;29.30;99572.00;;;;5034966;28;20937;-75
2021/06/12 03:55:25;;;;;;;5.60;4.67;;;21.70;90.10;29.30;99581.00;;;;5035435;28;20173;-75
2021/06/12 03:57:51;;;;;;;5.47;4.33;;;21.70;90.10;29.20;99590.00;;;;5051889;28;20177;-75
2021/06/12 04:00:17;;;;;;;5.00;4.10;;;21.70;90.10;29.20;99583.00;;;;5051766;28;20178;-74
2021/06/12 04:02:43;;;;;;;6.63;4.80;;;21.70;90.10;29.30;99582.00;;;;5051468;28;20463;-75
2021/06/12 04:05:09;;;;;;;5.27;4.60;;;21.70;90.10;29.20;99580.00;;;;5070127;28;20463;-75
2021/06/12 04:07:37;;;;;;;6.20;4.90;;;21.70;90.10;29.20;99574.00;;;;5034547;28;20472;-75
2021/06/12 04:10:06;;;;;;;5.60;4.80;;;21.70;90.10;29.20;99584.00;;;;5051978;28;20481;-75
2021/06/12 04:12:32;;;;;;;5.43;4.73;;;21.70;90.10;29.10;99588.00;;;;5051566;28;20460;-75
2021/06/12 04:14:58;;;;;;;6.30;4.83;;;21.70;90.10;29.20;99578.00;;;;5068315;28;20442;-75
2021/06/12 04:17:24;;;;;;;6.30;4.30;;;21.70;90.10;29.20;99595.00;;;;5068139;28;20257;-75
2021/06/12 04:19:49;;;;;;;5.00;4.10;;;21.70;90.10;29.30;99597.00;;;;5068386;28;20562;-74
2021/06/12 04:22:15;;;;;;;5.37;4.30;;;21.70;90.20;29.20;99603.00;;;;5067542;28;20555;-74
2021/06/12 04:24:41;;;;;;;5.80;4.67;;;21.70;90.20;29.20;99599.00;;;;5068518;28;20229;-74
2021/06/12 04:27:07;;;;;;;6.13;4.30;;;21.70;90.20;29.10;99586.00;;;;5067527;28;20294;-75
2021/06/12 04:29:32;;;;;;;5.40;4.57;;;21.70;90.20;29.20;99591.00;;;;5035066;28;20683;-74
2021/06/12 04:31:58;;;;;;;5.37;4.47;;;21.70;90.20;29.30;99594.00;;;;5068256;28;20451;-74
2021/06/12 04:34:24;;;;;;;5.57;4.97;;;21.60;90.10;29.30;99591.00;;;;5067600;28;20177;-74
2021/06/12 04:36:50;;;;;;;5.20;4.50;;;21.70;90.20;29.30;99597.00;;;;5051532;28;20299;-74
2021/06/12 04:39:15;;;;;;;6.00;4.20;;;21.70;90.20;29.20;99589.00;;;;5051742;28;20394;-74
2021/06/12 04:41:41;;;;;;;5.30;4.30;;;21.70;90.20;29.20;99595.00;;;;5050659;28;20205;-74
2021/06/12 04:44:07;;;;;;;6.60;5.03;;;21.60;90.10;29.30;99593.00;;;;5069853;28;20188;-76
2021/06/12 04:46:33;;;;;;;5.30;4.30;;;21.70;90.20;29.30;99591.00;;;;5051831;28;20323;-74
2021/06/12 04:48:58;;;;;;;4.80;4.10;;;21.60;90.10;29.30;99586.00;;;;5067418;28;20243;-74
2021/06/12 04:51:24;;;;;;;5.80;4.73;;;21.60;90.10;29.40;99596.00;;;;5069164;28;20197;-74
2021/06/12 04:53:50;;;;;;;5.37;4.33;;;21.70;90.20;29.20;99586.00;;;;5068462;28;20178;-74
2021/06/12 04:56:15;;;;;;;5.40;4.30;;;21.60;90.10;29.20;99595.00;;;;5067711;28;20209;-74
2021/06/12 04:58:41;;;;;;;5.60;4.07;;;21.60;90.20;29.20;99589.00;;;;5051558;28;20549;-74
2021/06/12 05:01:07;;;;;;;5.70;4.50;;;21.60;90.10;29.30;99578.00;;;;5069296;28;20204;-74
2021/06/12 05:03:32;;;;;;;5.20;4.30;;;21.60;90.10;29.30;99589.00;;;;5050429;28;20174;-74
2021/06/12 05:05:58;;;;;;;4.70;3.70;;;21.70;90.50;29.20;99583.00;;;;5034893;28;20209;-74
2021/06/12 05:08:24;;;;;;;5.07;4.07;;;21.60;90.10;29.20;99577.00;;;;5051097;28;20177;-74
2021/06/12 05:10:50;;;;;;;5.50;4.37;;;21.60;90.10;29.30;99577.00;;;;5050936;28;20753;-74
2021/06/12 05:13:15;;;;;;;6.03;4.57;;;21.60;90.10;29.40;99578.00;;;;5072761;28;20188;-74
2021/06/12 05:15:41;;;;;;;5.70;4.30;;;21.60;90.10;29.30;99576.00;;;;5071580;28;20231;-74
2021/06/12 05:18:07;;;;;;;5.20;4.00;;;21.60;90.10;29.20;99587.00;;;;5054008;28;20181;-74
2021/06/12 05:20:35;;;;;;;6.37;4.60;;;21.60;90.10;29.20;99586.00;;;;5055283;28;20621;-74
2021/06/12 05:23:02;;;;;;;5.10;4.10;;;21.60;90.10;29.30;99583.00;;;;5054699;28;20643;-74
2021/06/12 05:25:29;;;;;;;5.30;4.37;;;21.60;90.10;29.20;99578.00;;;;5038632;28;20510;-74
2021/06/12 05:27:55;;;;;;;5.03;4.13;;;21.60;90.10;29.10;99574.00;;;;5037770;28;20435;-75
2021/06/12 05:30:22;;;;;;;5.50;4.27;;;21.60;90.10;29.40;99576.00;;;;5054054;28;20485;-75
2021/06/12 05:32:47;;;;;;;4.87;3.67;;;21.60;90.10;29.20;99579.00;;;;5070987;28;20514;-75
2021/06/12 05:35:13;;;;;;;5.20;4.27;;;21.60;90.10;29.20;99584.00;;;;5071148;28;20569;-74
2021/06/12 05:37:40;;;;;;;5.17;4.33;;;21.60;90.10;29.20;99578.00;;;;5037019;28;20200;-74
2021/06/12 05:40:07;;;;;;;6.20;4.30;;;21.60;90.10;29.20;99578.00;;;;5054466;28;20463;-75
2021/06/12 05:42:33;;;;;;;5.43;4.53;;;21.60;90.20;29.20;99573.00;;;;5037579;28;20550;-74
2021/06/12 05:44:58;;;;;;;5.00;4.50;;;21.60;90.10;29.10;99571.00;;;;5054035;28;20530;-75
2021/06/12 05:47:24;;;;;;;5.50;4.20;;;21.60;90.10;29.30;99581.00;;;;5070777;28;20271;-74
2021/06/12 05:49:50;;;;;;;5.70;4.30;;;21.60;90.10;29.20;99570.00;;;;5070601;28;20544;-75
2021/06/12 05:52:16;;;;;;;5.80;4.57;;;21.60;90.10;29.10;99582.00;;;;5053413;28;20205;-74
2021/06/12 05:54:41;;;;;;;5.20;4.23;;;21.60;90.10;29.20;99589.00;;;;5054132;28;20173;-75
2021/06/12 05:57:07;;;;;;;4.83;3.83;;;21.60;90.10;29.00;99584.00;;;;5071239;28;20224;-75
2021/06/12 05:59:33;;;;;;;5.23;4.17;;;21.60;90.10;29.30;99592.00;;;;5070107;28;20177;-74
2021/06/12 06:01:59;;;;;;;5.10;4.17;;;21.60;90.10;29.20;99582.00;;;;5054545;28;20482;-75
2021/06/12 06:04:24;;;;;;;5.33;4.13;;;21.60;90.10;29.20;99594.00;;;;5070544;28;20178;-75
2021/06/12 06:06:50;;;;;;;5.83;4.13;;;21.60;90.20;29.10;99592.00;;;;5070000;28;20275;-75
2021/06/12 06:09:16;;;;;;;5.40;4.00;;;21.60;90.10;29.20;99581.00;;;;5037331;28;20617;-75
2021/06/12 06:11:42;;;;;;;4.93;3.93;;;21.60;90.10;29.10;99583.00;;;;5020962;28;20494;-74
2021/06/12 06:14:08;;;;;;;5.20;4.37;;;21.60;90.10;29.00;99582.00;;;;5053286;28;20280;-74
2021/06/12 06:16:33;;;;;;;5.33;4.50;;;21.60;90.10;29.10;99579.00;;;;5070649;28;20626;-74
2021/06/12 06:18:59;;;;;;;4.77;3.70;;;21.60;90.10;29.20;99584.00;;;;5068314;28;20497;-74
2021/06/12 06:21:25;;;;;;;5.83;4.37;;;21.60;90.20;29.10;99575.00;;;;5067910;28;20302;-75
2021/06/12 06:23:51;;;;;;;5.57;4.30;;;21.60;90.20;29.10;99584.00;;;;5034536;28;20185;-75
2021/06/12 06:26:17;;;;;;;6.10;4.17;;;21.60;90.20;29.10;99578.00;;;;5051868;28;21251;-74
2021/06/12 06:28:42;;;;;;;5.70;4.60;;;21.60;90.20;29.20;99574.00;;;;5069937;28;20208;-74
2021/06/12 06:31:08;;;;;;;5.40;4.10;;;21.60;90.20;29.10;99587.00;;;;5069888;28;20276;-74
2021/06/12 06:33:34;;;;;;;5.40;4.33;;;21.60;90.20;29.10;99580.00;;;;5051728;28;20960;-74
2021/06/12 06:36:00;;;;;;;7.10;4.30;;;21.60;90.20;29.10;99584.00;;;;5052394;28;20197;-74
2021/06/12 06:38:26;;;;;;;4.80;4.07;;;21.60;90.20;28.90;99583.00;;;;5048408;28;20671;-74
2021/06/12 06:40:52;;;;;;;5.60;4.77;;;21.60;90.20;29.20;99586.00;;;;5050361;28;20456;-74
2021/06/12 06:43:18;;;;;;;5.50;4.47;;;21.60;90.20;29.10;99585.00;;;;5032041;28;20437;-74
2021/06/12 06:45:44;;;;;;;5.10;4.07;;;21.60;90.20;29.00;99577.00;;;;5032797;28;20456;-74
2021/06/12 06:48:12;;;;;;;6.60;4.70;;;21.60;90.20;29.10;99583.00;;;;5015400;28;20526;-74
2021/06/12 06:50:39;;;;;;;4.90;4.17;;;21.60;90.20;29.00;99554.00;;;;5017376;28;20488;-74
2021/06/12 06:53:05;;;;;;;5.23;4.40;;;21.60;90.20;29.00;99567.00;;;;5033546;28;20441;-74
2021/06/12 06:55:31;;;;;;;4.93;4.10;;;21.60;90.20;29.00;99564.00;;;;5032717;28;20440;-74
2021/06/12 06:57:57;;;;;;;5.20;4.07;;;21.60;90.20;29.00;99563.00;;;;5049898;28;20232;-74
2021/06/12 07:00:25;;;;;;;5.00;3.67;;;21.60;90.20;29.10;99566.00;;;;5049624;28;20464;-74
2021/06/12 07:02:51;;;;;;;5.27;4.33;;;21.60;90.20;29.10;99547.00;;;;5032906;28;20841;-74
2021/06/12 07:05:17;;;;;;;5.03;4.10;;;21.60;90.20;29.10;99561.00;;;;5032202;28;20447;-74
2021/06/12 07:07:43;;;;;;;5.10;4.00;;;21.60;90.20;29.20;99554.00;;;;5050749;28;20202;-74
2021/06/12 07:10:10;;;;;;;5.53;4.60;;;21.60;90.20;29.10;99554.00;;;;5047435;28;20479;-74
2021/06/12 07:12:35;;;;;;;5.47;4.30;;;21.60;90.20;29.10;99548.00;;;;5051726;28;20483;-74
2021/06/12 07:15:02;;;;;;;5.77;4.47;;;21.60;90.20;29.20;99543.00;;;;5069717;28;20427;-74
2021/06/12 07:17:27;;;;;;;5.20;3.60;;;21.60;90.20;29.10;99557.00;;;;5067927;28;20251;-74
2021/06/12 07:19:54;;;;;;;5.10;3.93;;;21.60;90.20;29.10;99556.00;;;;5051594;28;20855;-74
2021/06/12 07:22:20;;;;;;;5.40;4.10;;;21.60;90.60;29.20;99561.00;;;;5034739;28;20201;-74
2021/06/12 07:24:45;;;;;;;5.60;4.60;;;21.60;90.20;29.20;99564.00;;;;5067390;28;20471;-73
2021/06/12 07:27:13;;;;;;;5.17;3.80;;;21.60;90.20;29.30;99563.00;;;;5070280;28;20200;-74
2021/06/12 07:29:38;;;;;;;5.13;3.70;;;21.60;90.20;29.20;99553.00;;;;5066894;28;20201;-74
2021/06/12 07:32:05;;;;;;;5.00;3.93;;;21.60;90.20;29.20;99544.00;;;;5032846;28;20471;-74
2021/06/12 07:34:31;;;;;;;5.37;4.43;;;21.60;90.20;29.30;99562.00;;;;5033963;28;20444;-74
2021/06/12 07:36:57;;;;;;;4.73;3.93;;;21.60;90.20;29.30;99561.00;;;;5066354;28;20486;-74
2021/06/12 07:39:26;;;;;;;5.20;4.03;;;21.60;90.20;29.30;99565.00;;;;5049838;28;20218;-74
2021/06/12 07:41:52;;;;;;;4.97;3.90;;;21.60;90.20;29.30;99563.00;;;;5050716;28;20213;-74
2021/06/12 07:44:18;;;;;;;5.50;4.20;;;21.60;90.20;29.40;99562.00;;;;5050837;28;20432;-74
2021/06/12 07:46:43;;;;;;;5.80;4.57;;;21.60;90.20;29.20;99580.00;;;;5019060;28;20212;-74
2021/06/12 07:49:11;;;;;;;5.50;4.37;;;21.60;90.20;29.30;99574.00;;;;5069265;28;20558;-74
2021/06/12 07:51:40;;;;;;;5.33;3.90;;;21.60;90.60;29.40;99560.00;;;;5068102;28;20694;-75
2021/06/12 07:54:06;;;;;;;5.00;4.20;;;21.60;90.20;29.20;99568.00;;;;5035967;28;20454;-75
2021/06/12 07:56:32;;;;;;;5.40;4.50;;;21.60;90.20;29.20;99566.00;;;;5034950;28;21017;-74
2021/06/12 07:58:58;;;;;;;5.70;4.20;;;21.60;90.20;29.30;99561.00;;;;5069974;28;20774;-74
2021/06/12 08:01:24;;;;;;;4.80;3.87;;;21.60;90.20;29.20;99562.00;;;;5068153;28;20459;-74
2021/06/12 08:03:49;;;;;;;4.97;4.07;;;21.60;90.20;29.10;99572.00;;;;5068526;28;20185;-74
2021/06/12 08:06:15;;;;;;;5.10;4.23;;;21.60;90.20;29.10;99565.00;;;;5051176;28;20208;-75
2021/06/12 08:08:41;;;;;;;5.40;4.30;;;21.60;90.20;29.20;99563.00;;;;5052053;28;20397;-74
2021/06/12 08:11:07;;;;;;;5.30;3.97;;;21.60;90.20;29.30;99564.00;;;;5051618;28;20303;-74
2021/06/12 08:13:33;;;;;;;5.00;3.80;;;21.60;90.20;29.30;99571.00;;;;5068364;28;20181;-75
2021/06/12 08:15:59;;;;;;;5.30;4.30;;;21.60;90.30;29.30;99575.00;;;;5051238;28;20875;-75
2021/06/12 08:18:24;;;;;;;5.33;4.23;;;21.60;90.20;29.40;99574.00;;;;5051959;28;20432;-74
2021/06/12 08:20:50;;;;;;;5.00;3.73;;;21.60;90.20;29.30;99564.00;;;;5051105;28;20197;-74
2021/06/12 08:23:16;;;;;;;5.00;3.93;;;21.60;90.20;29.30;99572.00;;;;5052016;28;20543;-74
2021/06/12 08:25:42;;;;;;;4.80;3.70;;;21.60;90.20;29.20;99569.00;;;;5051065;28;20494;-74
2021/06/12 08:28:08;;;;;;;4.93;3.77;;;21.60;90.20;29.20;99535.00;;;;5051602;28;20526;-74
2021/06/12 08:30:35;;;;;;;5.07;3.80;;;21.60;90.20;29.40;99573.00;;;;5051177;28;20636;-75
2021/06/12 08:33:08;;;;;;;4.80;3.90;;;21.60;90.20;29.30;99577.00;;;;5035029;28;20258;-75
2021/06/12 08:35:36;;;;;;;5.27;4.33;;;21.60;90.20;29.40;99577.00;;;;5067850;28;20474;-75
2021/06/12 08:38:02;;;;;;;5.17;4.07;;;21.60;90.20;29.50;99569.00;;;;5035795;28;20534;-75
2021/06/12 08:40:28;;;;;;;5.70;4.43;;;21.70;90.30;29.40;99566.00;;;;5050555;28;20435;-75
2021/06/12 08:42:54;;;;;;;4.90;4.00;;;21.60;90.20;29.40;99567.00;;;;5068513;28;20431;-75
2021/06/12 08:45:27;;;;;;;5.83;4.10;;;21.70;90.30;29.40;99563.00;;;;5068327;28;20532;-75
2021/06/12 08:47:54;;;;;;;4.90;4.10;;;21.70;90.30;29.50;99564.00;;;;5071026;28;20204;-75
2021/06/12 08:50:22;;;;;;;4.60;3.40;;;21.70;90.30;29.30;99552.00;;;;5022107;28;20470;-75
2021/06/12 08:52:48;;;;;;;4.80;3.60;;;21.70;90.30;29.40;99543.00;;;;5056211;28;20447;-75
2021/06/12 08:55:14;;;;;;;5.73;4.60;;;21.70;90.30;29.60;99521.00;;;;5038046;28;20424;-75
2021/06/12 08:57:40;;;;;;;5.00;3.83;;;21.70;90.30;29.50;99546.00;;;;5072064;28;20829;-75
2021/06/12 09:00:08;;;;;;;5.30;4.20;;;21.70;90.70;29.40;99540.00;;;;5055729;28;20539;-75
2021/06/12 09:03:13;;;;;;;5.80;4.40;;;21.70;90.30;29.40;99531.00;;;;5037987;28;20194;-75
2021/06/12 09:05:54;;;;;;;4.83;3.67;;;21.70;90.30;29.50;99518.00;;;;5072399;28;20463;-75
2021/06/12 09:08:25;;;;;;;4.77;3.70;;;21.70;90.30;29.50;99518.00;;;;5019962;28;20447;-75
2021/06/12 09:11:07;;;;;;;5.37;4.20;;;21.70;90.30;29.40;99532.00;;;;5054184;28;20566;-75
2021/06/12 09:13:50;;;;;;;5.53;4.10;;;21.70;90.30;29.40;99529.00;;;;5071135;28;20447;-75
2021/06/12 09:16:27;;;;;;;5.20;3.90;;;21.70;90.30;29.40;99516.00;;;;5037833;28;20928;-75
2021/06/12 09:19:17;;;;;;;5.17;4.07;;;21.70;90.30;29.40;99517.00;;;;5054474;28;20476;-75
2021/06/12 09:22:10;;;;;;;4.83;3.70;;;21.70;90.30;29.50;99519.00;;;;5056268;28;20486;-75
2021/06/12 09:24:50;;;;;;;5.40;4.27;;;21.70;90.30;29.50;99516.00;;;;5070562;28;20487;-76
2021/06/12 09:27:17;;;;;;;4.83;3.60;;;21.70;90.30;29.50;99511.00;;;;5055789;28;20451;-75
2021/06/12 09:29:50;;;;;;;4.53;3.40;;;21.70;90.30;29.50;99513.00;;;;5037413;28;20519;-75
2021/06/12 09:32:33;;;;;;;5.20;4.20;;;21.70;90.30;29.50;99515.00;;;;5069998;28;20483;-75
2021/06/12 09:35:07;;;;;;;5.10;3.93;;;21.70;90.30;29.50;99518.00;;;;5039015;28;20455;-75
2021/06/12 09:37:33;;;;;;;5.00;4.13;;;21.70;90.30;29.40;99518.00;;;;5053305;28;20463;-75
2021/06/12 09:40:11;;;;;;;4.70;3.73;;;21.70;90.30;29.50;99513.00;;;;5070415;28;20443;-75
2021/06/12 09:42:54;;;;;;;4.93;3.87;;;21.70;90.30;29.50;99516.00;;;;5021591;28;20463;-75
2021/06/12 09:45:25;;;;;;;5.57;3.90;;;21.70;90.30;29.40;99512.00;;;;5052988;28;20440;-75
2021/06/12 09:47:51;;;;;;;4.93;3.67;;;21.80;90.40;29.60;99509.00;;;;5037238;28;20439;-76
2021/06/12 09:50:23;;;;;;;4.80;3.60;;;21.80;90.40;29.70;99510.00;;;;5053546;28;20479;-76
2021/06/12 09:52:52;;;;;;;5.00;3.80;;;21.80;90.40;29.60;99509.00;;;;5036596;28;20960;-76
2021/06/12 09:55:29;;;;;;;4.70;3.70;;;21.80;90.40;29.40;99509.00;;;;5053092;28;20988;-76
2021/06/12 09:57:57;;;;;;;5.10;4.23;;;21.80;90.40;29.60;99498.00;;;;5053130;28;20861;-76
2021/06/12 10:00:41;;;;;;;5.00;3.90;;;21.80;90.40;29.60;99513.00;;;;5053010;28;20447;-75
2021/06/12 10:03:20;;;;;;;4.80;3.67;;;21.80;90.30;29.60;99506.00;;;;5053127;28;20443;-75
2021/06/12 10:05:47;;;;;;;5.40;4.27;;;21.80;90.40;29.70;99503.00;;;;5053412;28;20461;-76
2021/06/12 10:08:14;;;;;;;4.93;3.70;;;21.80;90.40;29.60;99504.00;;;;5021097;28;20470;-75
2021/06/12 10:10:48;;;;;;;5.30;3.87;;;21.80;90.30;29.80;99505.00;;;;5053970;28;21021;-75
2021/06/12 10:13:13;;;;;;;5.10;3.87;;;21.80;90.40;29.60;99498.00;;;;5039025;28;20492;-75
2021/06/12 10:15:39;;;;;;;5.00;3.93;;;21.80;90.40;29.70;99496.00;;;;5033527;28;20459;-75
2021/06/12 10:18:05;;;;;;;5.10;4.00;;;21.80;90.40;29.70;99483.00;;;;5036685;28;20184;-76
2021/06/12 10:20:31;;;;;;;5.77;4.57;;;21.80;90.40;29.70;99491.00;;;;5036183;28;20582;-76
2021/06/12 10:22:57;;;;;;;5.23;4.20;;;21.80;90.40;29.70;99483.00;;;;5035925;28;20193;-76
2021/06/12 10:25:23;;;;;;;4.80;3.90;;;21.80;90.40;29.70;99488.00;;;;5070565;28;20252;-76
2021/06/12 10:27:49;;;;;;;5.17;4.07;;;21.80;90.40;29.80;99489.00;;;;5035850;28;20447;-76
2021/06/12 10:30:19;;;;;;;5.07;3.97;;;21.80;90.40;29.80;99495.00;;;;5068998;28;20806;-75
2021/06/12 10:32:50;;;;;;;4.97;3.63;;;21.80;90.40;29.80;99497.00;;;;5019541;28;20444;-75
2021/06/12 10:35:25;;;;;;;4.50;3.53;;;21.90;90.50;29.80;99495.00;;;;5020466;28;20497;-76
2021/06/12 10:38:14;;;;;;;5.47;3.40;;;21.90;90.40;29.80;99487.00;;;;5068530;28;20458;-75
2021/06/12 10:40:51;;;;;;;4.77;3.50;;;21.80;90.40;29.70;99462.00;;;;5053584;28;20459;-75
2021/06/12 10:43:21;;;;;;;4.93;3.80;;;21.90;90.40;29.70;99476.00;;;;5069313;28;20538;-75
2021/06/12 10:46:09;;;;;;;4.97;3.63;;;21.90;90.50;29.80;99475.00;;;;5052073;28;20515;-75
2021/06/12 10:48:49;;;;;;;5.00;3.57;;;21.90;90.50;29.70;99472.00;;;;5054890;28;20432;-75
2021/06/12 10:51:27;;;;;;;4.90;3.67;;;21.90;90.50;29.80;99474.00;;;;5069409;28;20463;-75
2021/06/12 10:54:20;;;;;;;4.90;3.80;;;21.90;90.50;29.80;99477.00;;;;5067812;28;20452;-75
2021/06/12 10:56:56;;;;;;;4.80;4.13;;;21.90;90.50;29.70;99474.00;;;;5069061;28;20472;-75
2021/06/12 10:59:36;;;;;;;5.10;3.90;;;21.90;90.50;29.80;99469.00;;;;5068847;28;20431;-75